Rotterdam, Netherlands

5:44 AM CEST on September 24, 2014 (GMT +0200)
Rotterdam | Change Station
CLOSE
Current Station
Airport
Location: Rotterdam,
Elevation: -16 ft
Nearby Weather Stations

Elev -16 ft 51.95 °N, 4.44 °E | Updated 19 minutes ago

Haze
Haze
57 °F
Feels Like 57 °F
N
10
Wind Variable Wind from South

Today
High -- | Low -- °F
--% Chance of Precip.
Yesterday
High -- | Low -- °F
Precip. -- in
7:31 AM 7:36 PM
Waning Crescent, 0% visible
Pressure 29.92 in
Visibility 3.1 miles
Clouds
Dew Point 52 °F
Humidity 82%
Rainfall 0.00 in
Snow Depth Not available.
UV Not available.
Pollen Not available.
Air Quality Not available.
Flu Activity Not available.
METAR EHRD 240325Z AUTO 19009KT 160V220 5000 HZ NSC 14/11 Q1013 NOSIG

More Conditions Fewer Conditions

Pressure 29.92 in
Visibility 3.1 miles
Clouds
Dew Point 52 °F
Humidity 82%
Rainfall 0.00 in
Snow Depth Not available.
UV Not available.
Pollen Not available.
Air Quality Not available.
Flu Activity Not available.
METAR EHRD 240325Z AUTO 19009KT 160V220 5000 HZ NSC 14/11 Q1013 NOSIG

More Conditions Fewer Conditions

10-Day Weather Forecast

Almanac

Astronomy

Sep. 24, 2014 Rise Set
Actual Time 7:31 AM CEST 7:36 PM CEST
Civil Twilight 6:57 AM CEST 8:09 PM CEST
Nautical Twilight 6:17 AM CEST 8:49 PM CEST
Astronomical Twilight 5:36 AM CEST 9:30 PM CEST
Moon 7:40 AM CEST 7:31 PM CEST
Length of Visible Light 13h 12m
Length of Day
12h 05m
Tomorrow will be 3m 59s shorter.
Waning Crescent, 0% of the Moon is Illuminated
Sep 23
Waning Crescent
Sep 24
New
Oct 1
First Quarter
Oct 8
Full
Oct 15
Last Quarter

Yesterday's Extremes

Country Highs Country Lows

Community

WunderPhotos

Upload Photos

1,755,878 photos uploaded!

WunderBlogs® & News

Nearby

Snow Depth

Not available.

Earthquake Activity

City Distance Mag. Time & Date
No recent earthquake activity has been reported nearby.
Minimum magnitude displayed is 2.5.

Coastal Water Temperatures

Place Temperature
No Stations Reporting

Nearby Weather Stations